FNG200 EFHK-EFHK
Flight info
| Callsign | FNG200 |
|---|---|
| Flight time | 0h 6m |
| Altitude | 2500 |
| Route | HAGIP EFHY TYYSKYLA PORKKALA TAMMISAARI SANTAHAMINA PIRTTINIEMI |
| Aircraft | B412/L-SDFZ/C |
Departure
| Time | 2026-04-25 17:01 |
|---|---|
| Airport | Helsinki Vantaa Airport (EFHK) |
Arrival
| Time | 2026-04-25 17:07 |
|---|---|
| Airport | Helsinki Vantaa Airport (EFHK) |
| Time | Latitude | Longitude | Altitude | Speed | Heading |
|---|---|---|---|---|---|
| 2026-04-25 16:57 | 60.31303 | 24.98881 | 155 ft | 0 kts | 239° |
| 2026-04-25 16:58 | 60.31291 | 24.98870 | 155 ft | 3 kts | 215° |
| 2026-04-25 16:58 | 60.31258 | 24.98826 | 155 ft | 7 kts | 197° |
| 2026-04-25 16:58 | 60.31214 | 24.98821 | 155 ft | 5 kts | 170° |
| 2026-04-25 16:59 | 60.31189 | 24.98803 | 155 ft | 4 kts | 266° |
| 2026-04-25 16:59 | 60.31198 | 24.98779 | 155 ft | 0 kts | 328° |
| 2026-04-25 17:00 | 60.31247 | 24.98740 | 173 ft | 16 kts | 353° |
| 2026-04-25 17:00 | 60.31348 | 24.98648 | 367 ft | 21 kts | 338° |
| 2026-04-25 17:00 | 60.31476 | 24.98293 | 692 ft | 35 kts | 317° |
| 2026-04-25 17:01 | 60.31687 | 24.97833 | 990 ft | 58 kts | 292° |
| 2026-04-25 17:01 | 60.31817 | 24.96924 | 1227 ft | 76 kts | 276° |
| 2026-04-25 17:01 | 60.31619 | 24.95931 | 1508 ft | 81 kts | 232° |
| 2026-04-25 17:01 | 60.31146 | 24.95281 | 1741 ft | 88 kts | 210° |
| 2026-04-25 17:02 | 60.30545 | 24.94714 | 1864 ft | 102 kts | 205° |
| 2026-04-25 17:02 | 60.29817 | 24.94104 | 1596 ft | 133 kts | 202° |
| 2026-04-25 17:02 | 60.28860 | 24.93417 | 1127 ft | 149 kts | 199° |
| 2026-04-25 17:02 | 60.28551 | 24.93207 | 1166 ft | 141 kts | 199° |
| 2026-04-25 17:03 | 60.27102 | 24.92080 | 1191 ft | 129 kts | 203° |
| 2026-04-25 17:03 | 60.26282 | 24.91397 | 1198 ft | 127 kts | 203° |
| 2026-04-25 17:03 | 60.25475 | 24.90739 | 1203 ft | 126 kts | 203° |
| 2026-04-25 17:03 | 60.24715 | 24.90230 | 1190 ft | 103 kts | 195° |
| 2026-04-25 17:04 | 60.24069 | 24.89954 | 1204 ft | 89 kts | 188° |
| 2026-04-25 17:04 | 60.23477 | 24.89854 | 1209 ft | 83 kts | 181° |
| 2026-04-25 17:04 | 60.22915 | 24.89950 | 1208 ft | 79 kts | 174° |
| 2026-04-25 17:04 | 60.22377 | 24.90115 | 1209 ft | 78 kts | 170° |
| 2026-04-25 17:05 | 60.21847 | 24.90304 | 1208 ft | 77 kts | 171° |
| 2026-04-25 17:05 | 60.20461 | 24.90882 | 727 ft | 121 kts | 171° |
| 2026-04-25 17:05 | 60.19663 | 24.91278 | 622 ft | 115 kts | 171° |
| 2026-04-25 17:06 | 60.19158 | 24.91528 | 585 ft | 110 kts | 171° |
| 2026-04-25 17:06 | 60.18826 | 24.91230 | 491 ft | 65 kts | 297° |
| 2026-04-25 17:06 | 60.18804 | 24.90329 | 581 ft | 70 kts | 223° |
| 2026-04-25 17:06 | 60.18352 | 24.90835 | 611 ft | 85 kts | 129° |
| 2026-04-25 17:07 | 60.18450 | 24.91376 | 588 ft | 41 kts | 329° |
| 2026-04-25 17:07 | 60.18751 | 24.91073 | 391 ft | 48 kts | 312° |
| 2026-04-25 17:07 | 60.18956 | 24.90902 | 323 ft | 50 kts | 30° |
| 2026-04-25 17:07 | 60.19017 | 24.91479 | 352 ft | 37 kts | 239° |
| 2026-04-25 17:08 | 60.18899 | 24.91264 | 303 ft | 36 kts | 278° |
| 2026-04-25 17:08 | 60.18885 | 24.90840 | 238 ft | 25 kts | 285° |
| 2026-04-25 17:08 | 60.18728 | 24.90429 | 272 ft | 53 kts | 347° |
| 2026-04-25 17:08 | 60.18915 | 24.91020 | 337 ft | 85 kts | 134° |
| 2026-04-25 17:09 | 60.18694 | 24.91624 | 161 ft | 11 kts | 327° |
| 2026-04-25 17:09 | 60.18734 | 24.91356 | 320 ft | 34 kts | 303° |
| 2026-04-25 17:09 | 60.18861 | 24.90867 | 232 ft | 36 kts | 300° |
| 2026-04-25 17:09 | 60.18898 | 24.90780 | 258 ft | 40 kts | 133° |
| 2026-04-25 17:10 | 60.18845 | 24.90869 | 186 ft | 21 kts | 311° |
| 2026-04-25 17:10 | 60.18893 | 24.90756 | 194 ft | 6 kts | 318° |
| 2026-04-25 17:10 | 60.18894 | 24.90754 | 193 ft | 0 kts | 260° |
| 2026-04-25 17:11 | 60.18788 | 24.90677 | 199 ft | 35 kts | 211° |
| 2026-04-25 17:11 | 60.18539 | 24.90309 | 661 ft | 53 kts | 249° |
| 2026-04-25 17:11 | 60.18521 | 24.89583 | 1132 ft | 59 kts | 302° |
| 2026-04-25 17:11 | 60.18734 | 24.88935 | 1414 ft | 61 kts | 311° |
| 2026-04-25 17:12 | 60.19013 | 24.88009 | 1353 ft | 88 kts | 302° |
| 2026-04-25 17:12 | 60.19068 | 24.86704 | 1339 ft | 101 kts | 270° |
| 2026-04-25 17:12 | 60.18895 | 24.85292 | 1338 ft | 106 kts | 262° |
| 2026-04-25 17:12 | 60.18662 | 24.83875 | 1335 ft | 107 kts | 259° |
| 2026-04-25 17:13 | 60.18419 | 24.82455 | 1337 ft | 108 kts | 260° |
| 2026-04-25 17:13 | 60.18257 | 24.81508 | 1338 ft | 109 kts | 260° |
| 2026-04-25 17:13 | 60.17924 | 24.79578 | 1340 ft | 109 kts | 260° |
| 2026-04-25 17:13 | 60.17677 | 24.78143 | 1340 ft | 109 kts | 260° |
| 2026-04-25 17:14 | 60.17430 | 24.76714 | 1341 ft | 108 kts | 261° |
| 2026-04-25 17:14 | 60.17205 | 24.75287 | 1340 ft | 105 kts | 268° |
| 2026-04-25 17:14 | 60.17090 | 24.73836 | 1342 ft | 106 kts | 268° |
| 2026-04-25 17:14 | 60.16898 | 24.72376 | 1352 ft | 111 kts | 265° |
| 2026-04-25 17:15 | 60.16668 | 24.70828 | 1343 ft | 118 kts | 263° |
| 2026-04-25 17:15 | 60.16409 | 24.69243 | 1344 ft | 121 kts | 261° |
| 2026-04-25 17:15 | 60.16135 | 24.67647 | 1347 ft | 121 kts | 260° |
| 2026-04-25 17:15 | 60.15856 | 24.66042 | 1347 ft | 122 kts | 260° |
| 2026-04-25 17:16 | 60.15579 | 24.64424 | 1348 ft | 123 kts | 261° |
| 2026-04-25 17:16 | 60.15304 | 24.62788 | 1347 ft | 124 kts | 261° |
| 2026-04-25 17:16 | 60.15031 | 24.61157 | 1350 ft | 123 kts | 262° |
| 2026-04-25 17:16 | 60.14764 | 24.59529 | 1356 ft | 123 kts | 262° |
| 2026-04-25 17:17 | 60.14500 | 24.57900 | 1353 ft | 123 kts | 262° |
| 2026-04-25 17:17 | 60.14239 | 24.56272 | 1357 ft | 123 kts | 262° |
| 2026-04-25 17:17 | 60.13982 | 24.54667 | 1354 ft | 122 kts | 262° |
| 2026-04-25 17:17 | 60.13720 | 24.53044 | 1357 ft | 122 kts | 262° |
| 2026-04-25 17:18 | 60.13515 | 24.51408 | 1361 ft | 120 kts | 271° |
| 2026-04-25 17:18 | 60.13448 | 24.49766 | 1362 ft | 117 kts | 275° |
| 2026-04-25 17:18 | 60.13280 | 24.48142 | 1368 ft | 121 kts | 264° |
| 2026-04-25 17:18 | 60.13420 | 24.46627 | 620 ft | 127 kts | 320° |
| 2026-04-25 17:19 | 60.14180 | 24.46145 | 384 ft | 101 kts | 9° |
| 2026-04-25 17:19 | 60.14295 | 24.47155 | 325 ft | 73 kts | 179° |
| 2026-04-25 17:19 | 60.14039 | 24.46665 | 121 ft | 63 kts | 300° |
| 2026-04-25 17:19 | 60.14248 | 24.46140 | 44 ft | 29 kts | 221° |
| 2026-04-25 17:20 | 60.14153 | 24.45946 | 45 ft | 26 kts | 201° |
| 2026-04-25 17:20 | 60.14034 | 24.45845 | 61 ft | 15 kts | 204° |
| 2026-04-25 17:20 | 60.14020 | 24.45830 | 63 ft | 2 kts | 146° |
| 2026-04-25 17:20 | 60.14021 | 24.45825 | 64 ft | 0 kts | 295° |
| 2026-04-25 17:39 | 60.13927 | 24.45630 | 241 ft | 43 kts | 240° |
| 2026-04-25 17:39 | 60.13737 | 24.44874 | 377 ft | 70 kts | 265° |
| 2026-04-25 17:39 | 60.13530 | 24.43882 | 519 ft | 78 kts | 265° |
| 2026-04-25 17:39 | 60.13455 | 24.42754 | 586 ft | 89 kts | 287° |
| 2026-04-25 17:40 | 60.13578 | 24.41407 | 453 ft | 100 kts | 290° |
| 2026-04-25 17:40 | 60.13725 | 24.40170 | 411 ft | 105 kts | 286° |
| 2026-04-25 17:40 | 60.13729 | 24.38798 | 509 ft | 100 kts | 267° |
| 2026-04-25 17:40 | 60.13260 | 24.37620 | 466 ft | 121 kts | 220° |
| 2026-04-25 17:41 | 60.12390 | 24.37382 | 451 ft | 135 kts | 173° |
| 2026-04-25 17:41 | 60.11591 | 24.38368 | 440 ft | 137 kts | 127° |
| 2026-04-25 17:41 | 60.11288 | 24.40075 | 438 ft | 126 kts | 81° |
| 2026-04-25 17:41 | 60.11594 | 24.41580 | 431 ft | 113 kts | 35° |
| 2026-04-25 17:42 | 60.12261 | 24.42094 | 430 ft | 100 kts | 351° |
| 2026-04-25 17:42 | 60.12813 | 24.41399 | 427 ft | 98 kts | 305° |
| 2026-04-25 17:42 | 60.12860 | 24.40013 | 436 ft | 109 kts | 259° |
| 2026-04-25 17:42 | 60.12308 | 24.38895 | 435 ft | 123 kts | 213° |
| 2026-04-25 17:43 | 60.11431 | 24.38827 | 430 ft | 134 kts | 167° |
| 2026-04-25 17:43 | 60.10592 | 24.39505 | 522 ft | 122 kts | 183° |
| 2026-04-25 17:43 | 60.10214 | 24.39060 | 739 ft | 58 kts | 273° |
| 2026-04-25 17:43 | 60.10094 | 24.38046 | 772 ft | 89 kts | 272° |
| 2026-04-25 17:44 | 60.09952 | 24.36700 | 760 ft | 105 kts | 269° |
| 2026-04-25 17:44 | 60.09839 | 24.35190 | 673 ft | 112 kts | 272° |
| 2026-04-25 17:44 | 60.09798 | 24.33619 | 596 ft | 115 kts | 277° |
| 2026-04-25 17:44 | 60.09834 | 24.31981 | 410 ft | 118 kts | 281° |
| 2026-04-25 17:45 | 60.09932 | 24.30396 | 409 ft | 110 kts | 285° |
| 2026-04-25 17:45 | 60.09977 | 24.29900 | 438 ft | 106 kts | 288° |
| 2026-04-25 17:45 | 60.10294 | 24.27664 | 651 ft | 95 kts | 299° |
| 2026-04-25 17:45 | 60.10569 | 24.26504 | 794 ft | 90 kts | 306° |
| 2026-04-25 17:46 | 60.10790 | 24.25312 | 922 ft | 97 kts | 282° |
| 2026-04-25 17:46 | 60.10562 | 24.23948 | 1053 ft | 104 kts | 262° |
| 2026-04-25 17:46 | 60.10339 | 24.22566 | 1152 ft | 104 kts | 268° |
| 2026-04-25 17:46 | 60.10187 | 24.21184 | 1249 ft | 103 kts | 275° |
| 2026-04-25 17:47 | 60.09994 | 24.19792 | 1105 ft | 103 kts | 261° |
| 2026-04-25 17:47 | 60.09694 | 24.18530 | 1026 ft | 101 kts | 255° |
| 2026-04-25 17:47 | 60.09227 | 24.17460 | 1055 ft | 102 kts | 231° |
| 2026-04-25 17:47 | 60.08616 | 24.16768 | 1172 ft | 104 kts | 198° |
| 2026-04-25 17:48 | 60.07724 | 24.17766 | 1215 ft | 100 kts | 100° |
| 2026-04-25 17:48 | 60.07880 | 24.19058 | 1138 ft | 62 kts | 352° |
| 2026-04-25 17:48 | 60.08063 | 24.18642 | 1074 ft | 74 kts | 291° |
| 2026-04-25 17:49 | 60.08084 | 24.17443 | 750 ft | 96 kts | 286° |
| 2026-04-25 17:49 | 60.08102 | 24.16035 | 485 ft | 106 kts | 264° |
| 2026-04-25 17:49 | 60.07594 | 24.15314 | 722 ft | 68 kts | 128° |
| 2026-04-25 17:49 | 60.07495 | 24.15979 | 763 ft | 59 kts | 50° |
| 2026-04-25 17:50 | 60.07710 | 24.16929 | 226 ft | 86 kts | 43° |
| 2026-04-25 17:50 | 60.07949 | 24.17726 | 225 ft | 42 kts | 122° |
| 2026-04-25 17:50 | 60.07901 | 24.17923 | 259 ft | 19 kts | 280° |
| 2026-04-25 17:50 | 60.07933 | 24.17403 | 120 ft | 35 kts | 341° |
| 2026-04-25 17:51 | 60.08085 | 24.17517 | 232 ft | 41 kts | 109° |
| 2026-04-25 17:51 | 60.07924 | 24.17790 | 150 ft | 28 kts | 267° |
| 2026-04-25 17:51 | 60.07916 | 24.17470 | 51 ft | 26 kts | 329° |
| 2026-04-25 17:51 | 60.07935 | 24.17308 | 27 ft | 3 kts | 45° |
| 2026-04-25 17:52 | 60.07934 | 24.17304 | 27 ft | 0 kts | 62° |